Nearby METAR Reports

 

K1V6 - Canon City, Colorado, USA
Distance from station: NE 34mi, 55km
Updated: 07/05/2022 8:35am MDT
Clear
Clear
 Wind from WNW
Wind: WNW 14 mph , 22 km/h
Temperature: 77°F , 25°C
Dew Point: 46°F , 8°C
Humidity: 34%
Barometer: 30.11 inHg , 1019.6 hPa
Clouds: Clear
Visibility: 10 miles , 16 km
2022/07/05 14:35 K1V6 051435Z AUTO 29012KT 10SM CLR 25/08 A3011 RMK AO2 LTG DSNT S
K04V - Saguache Muni, Colorado, USA
Distance from station: W 35mi, 56km
Updated: 07/05/2022 8:35am MDT
Nearby Thunderstorm
Nearby Thunderstorm
 Wind from NW
Wind: NW 3 mph , 6 km/h
Temperature: 64°F , 18°C
Dew Point: 46°F , 8°C
Humidity: 52%
Barometer: 30.34 inHg , 1027.4 hPa
Summary: Nearby Thunderstorm
Visibility: 10 miles , 16 km
2022/07/05 14:35 K04V 051435Z AUTO 32003KT 10SM VCTS 18/08 A3034 RMK AO2 LTG DSNT S
 
KANK - Salida, Colorado, USA
Distance from station: NW 43mi, 69km
Updated: 07/05/2022 8:35am MDT
Partly cloudy
Partly cloudy
 Wind from WNW
Wind: WNW 3 mph , 6 km/h
Temperature: 61°F , 16°C
Dew Point: 46°F , 8°C
Humidity: 59%
Barometer: 30.38 inHg , 1028.8 hPa
Clouds: Partly cloudy
Visibility: 10 miles , 16 km
Cloud details: Partly cloudy 12000 ft
2022/07/05 14:35 KANK 051435Z AUTO 30003KT 10SM SCT120 16/08 A3038 RMK AO1 T01600083
KVTP - La Veta Pass, Colorado, USA
Distance from station: SSE 44mi, 71km
Updated: 07/05/2022 8:35am MDT
Mostly cloudy
Mostly cloudy
 Wind from W
Wind: W 12 mph , 19 km/h, Gust: 18 mph , 30 km/h
Temperature: 54°F , 12°C
Dew Point: 43°F , 6°C
Humidity: 67%
Barometer: 30.47 inHg , 1031.8 hPa
Clouds: Mostly cloudy
Visibility: 10 miles , 16 km
Cloud details: Mostly cloudy 10000 ft
2022/07/05 14:35 KVTP 051435Z AUTO 27010G16KT 10SM BKN100 12/06 A3047 RMK AO2
 
KALS - Alamosa, Colorado, USA
Distance from station: SSW 48mi, 77km
Updated: 07/05/2022 8:52am MDT
Overcast
Overcast
 Wind from S
Wind: S 3 mph , 6 km/h
Temperature: 63°F , 17°C
Dew Point: 52°F , 11°C
Humidity: 68%
Barometer: 30.31 inHg , 1026.4 hPa
Clouds: Overcast
Visibility: 10 miles , 16 km
Cloud details: Overcast 11000 ft
2022/07/05 14:52 KALS 051452Z AUTO 19003KT 10SM OVC110 17/11 A3031 RMK AO2 LTG DSNT W SLP165 T01670111 53005 $